createdAt,value
2019-03-19T00:00:14.963Z,1012.37
2019-03-19T00:01:14.936Z,1012.35
2019-03-19T00:02:14.928Z,1012.37
2019-03-19T00:03:14.915Z,1012.37
2019-03-19T00:04:14.899Z,1012.37
2019-03-19T00:05:14.888Z,1012.37
2019-03-19T00:06:14.876Z,1012.33
2019-03-19T00:07:14.864Z,1012.32
2019-03-19T00:08:14.866Z,1012.34
2019-03-19T00:09:14.851Z,1012.34
2019-03-19T00:10:14.831Z,1012.33
2019-03-19T00:11:14.830Z,1012.38
2019-03-19T00:12:14.817Z,1012.42
2019-03-19T00:13:14.806Z,1012.42
2019-03-19T00:14:14.789Z,1012.44
2019-03-19T00:15:14.778Z,1012.44
2019-03-19T00:16:14.765Z,1012.43
2019-03-19T00:17:14.771Z,1012.45
2019-03-19T00:18:14.754Z,1012.48
2019-03-19T00:19:14.732Z,1012.48
2019-03-19T00:20:14.720Z,1012.45
2019-03-19T00:21:14.713Z,1012.46
2019-03-19T00:22:14.696Z,1012.47
2019-03-19T00:23:14.700Z,1012.49
2019-03-19T00:24:14.690Z,1012.44
2019-03-19T00:25:14.663Z,1012.54
2019-03-19T00:26:14.650Z,1012.48
2019-03-19T00:27:14.639Z,1012.46
2019-03-19T00:28:14.633Z,1012.47
2019-03-19T00:29:14.623Z,1012.45
2019-03-19T00:30:14.605Z,1012.44
2019-03-19T00:31:14.597Z,1012.51
2019-03-19T00:32:14.583Z,1012.53
2019-03-19T00:33:14.584Z,1012.54
2019-03-19T00:34:14.569Z,1012.56
2019-03-19T00:35:14.550Z,1012.59
2019-03-19T00:36:14.541Z,1012.50
2019-03-19T00:37:14.528Z,1012.54
2019-03-19T00:38:14.523Z,1012.55
2019-03-19T00:39:14.512Z,1012.57
2019-03-19T00:40:14.506Z,1012.58
2019-03-19T00:41:14.496Z,1012.57
2019-03-19T00:42:14.473Z,1012.56
2019-03-19T00:43:14.464Z,1012.57
2019-03-19T00:44:14.452Z,1012.55
2019-03-19T00:45:14.454Z,1012.56
2019-03-19T00:46:14.427Z,1012.58
2019-03-19T00:47:14.429Z,1012.60
2019-03-19T00:48:14.407Z,1012.62
2019-03-19T00:49:14.399Z,1012.61
2019-03-19T00:50:14.393Z,1012.65
2019-03-19T00:51:14.370Z,1012.62
2019-03-19T00:52:14.360Z,1012.67
2019-03-19T00:53:14.367Z,1012.65
2019-03-19T00:54:14.337Z,1012.61
2019-03-19T00:55:14.324Z,1012.60
2019-03-19T00:56:14.314Z,1012.59
2019-03-19T00:57:14.318Z,1012.59
2019-03-19T00:58:14.296Z,1012.60
2019-03-19T00:59:14.289Z,1012.55
2019-03-19T01:00:14.274Z,1012.53
2019-03-19T01:01:14.257Z,1012.59
2019-03-19T01:02:14.250Z,1012.61
2019-03-19T01:03:14.249Z,1012.59
2019-03-19T01:04:14.230Z,1012.62
2019-03-19T01:05:14.214Z,1012.61
2019-03-19T01:06:14.201Z,1012.61
2019-03-19T01:07:14.199Z,1012.65
2019-03-19T01:08:14.180Z,1012.67
2019-03-19T01:09:14.195Z,1012.68
2019-03-19T01:10:16.964Z,1012.69
2019-03-19T01:11:14.145Z,1012.70
2019-03-19T01:12:14.135Z,1012.71
2019-03-19T01:13:14.124Z,1012.77
2019-03-19T01:14:14.121Z,1012.66
2019-03-19T01:15:14.118Z,1012.70
2019-03-19T01:16:14.090Z,1012.65
2019-03-19T01:17:14.079Z,1012.70
2019-03-19T01:18:14.077Z,1012.68
2019-03-19T01:19:14.065Z,1012.68
2019-03-19T01:20:14.060Z,1012.71
2019-03-19T01:21:14.033Z,1012.69
2019-03-19T01:22:14.025Z,1012.66
2019-03-19T01:23:14.011Z,1012.70
2019-03-19T01:24:14.026Z,1012.68
2019-03-19T01:25:14.071Z,1012.67
2019-03-19T01:26:13.998Z,1012.70
2019-03-19T01:27:13.965Z,1012.64
2019-03-19T01:28:13.959Z,1012.71
2019-03-19T01:29:13.982Z,1012.67
2019-03-19T01:30:13.952Z,1012.68
2019-03-19T01:31:13.920Z,1012.67
2019-03-19T01:32:13.909Z,1012.61
2019-03-19T01:33:13.901Z,1012.62
2019-03-19T01:34:13.899Z,1012.68
2019-03-19T01:35:13.884Z,1012.68
2019-03-19T01:36:13.870Z,1012.65
2019-03-19T01:37:13.854Z,1012.71
2019-03-19T01:38:13.843Z,1012.67
2019-03-19T01:39:13.832Z,1012.66
2019-03-19T01:40:13.839Z,1012.67
2019-03-19T01:41:13.810Z,1012.66
2019-03-19T01:42:13.813Z,1012.67
2019-03-19T01:43:13.793Z,1012.61
2019-03-19T01:44:13.781Z,1012.58
2019-03-19T01:45:13.766Z,1012.60
2019-03-19T01:46:13.754Z,1012.67
2019-03-19T01:47:13.756Z,1012.61
2019-03-19T01:48:13.730Z,1012.66
2019-03-19T01:49:13.739Z,1012.68
2019-03-19T01:50:13.713Z,1012.68
2019-03-19T01:51:13.705Z,1012.66
2019-03-19T01:52:13.686Z,1012.68
2019-03-19T01:53:13.687Z,1012.67
2019-03-19T01:54:13.672Z,1012.69
2019-03-19T01:55:13.661Z,1012.72
2019-03-19T01:56:13.643Z,1012.74
2019-03-19T01:57:13.650Z,1012.74
2019-03-19T01:58:13.627Z,1012.75
2019-03-19T01:59:13.606Z,1012.77
2019-03-19T02:00:13.603Z,1012.77
2019-03-19T02:01:13.581Z,1012.79
2019-03-19T02:02:13.572Z,1012.83
2019-03-19T02:03:13.588Z,1012.76
2019-03-19T02:04:13.558Z,1012.82
2019-03-19T02:05:13.562Z,1012.76
2019-03-19T02:06:13.539Z,1012.78
2019-03-19T02:07:13.514Z,1012.71
2019-03-19T02:08:13.503Z,1012.73
2019-03-19T02:09:13.493Z,1012.71
2019-03-19T02:10:13.522Z,1012.68
2019-03-19T02:11:13.471Z,1012.68
2019-03-19T02:12:13.465Z,1012.68
2019-03-19T02:13:13.447Z,1012.63
2019-03-19T02:14:13.441Z,1012.63
2019-03-19T02:15:13.428Z,1012.64
2019-03-19T02:16:13.417Z,1012.67
2019-03-19T02:17:13.412Z,1012.62
2019-03-19T02:18:13.393Z,1012.61
2019-03-19T02:19:13.380Z,1012.64
2019-03-19T02:20:13.369Z,1012.65
2019-03-19T02:21:13.361Z,1012.63
2019-03-19T02:22:13.345Z,1012.64
2019-03-19T02:23:13.354Z,1012.62
2019-03-19T02:24:13.324Z,1012.65
2019-03-19T02:25:13.332Z,1012.61
2019-03-19T02:26:16.878Z,1012.59
2019-03-19T02:27:13.295Z,1012.58
2019-03-19T02:28:13.279Z,1012.60
2019-03-19T02:29:13.275Z,1012.61
2019-03-19T02:30:13.338Z,1012.66
2019-03-19T02:31:13.252Z,1012.72
2019-03-19T02:32:13.246Z,1012.69
2019-03-19T02:33:13.233Z,1012.68
2019-03-19T02:34:13.273Z,1012.63
2019-03-19T02:35:13.220Z,1012.61
2019-03-19T02:36:13.193Z,1012.61
2019-03-19T02:37:13.183Z,1012.62
2019-03-19T02:38:13.179Z,1012.60
2019-03-19T02:39:13.156Z,1012.62
2019-03-19T02:40:13.143Z,1012.59
2019-03-19T02:41:13.148Z,1012.64
2019-03-19T02:42:13.127Z,1012.63
2019-03-19T02:43:13.111Z,1012.63
2019-03-19T02:44:13.112Z,1012.61
2019-03-19T02:45:13.091Z,1012.61
2019-03-19T02:46:13.082Z,1012.60
2019-03-19T02:47:13.080Z,1012.59
2019-03-19T02:48:13.054Z,1012.56
2019-03-19T02:49:13.044Z,1012.61
2019-03-19T02:50:13.032Z,1012.61
2019-03-19T02:51:13.027Z,1012.65
2019-03-19T02:52:13.011Z,1012.67
2019-03-19T02:53:13.016Z,1012.70
2019-03-19T02:54:13.000Z,1012.71
2019-03-19T02:55:12.982Z,1012.71
2019-03-19T02:56:12.985Z,1012.73
2019-03-19T02:57:12.955Z,1012.72
2019-03-19T02:58:12.962Z,1012.73
2019-03-19T02:59:12.928Z,1012.68
2019-03-19T03:00:12.925Z,1012.71
2019-03-19T03:01:12.916Z,1012.80
2019-03-19T03:02:12.896Z,1012.80
2019-03-19T03:03:12.910Z,1012.79
2019-03-19T03:04:12.874Z,1012.84
2019-03-19T03:05:12.869Z,1012.86
2019-03-19T03:06:12.853Z,1012.88
2019-03-19T03:07:12.853Z,1012.87
2019-03-19T03:08:12.830Z,1012.85
2019-03-19T03:09:12.837Z,1012.86
2019-03-19T03:10:12.803Z,1012.88
2019-03-19T03:11:12.811Z,1012.87
2019-03-19T03:12:12.787Z,1012.87
2019-03-19T03:13:12.769Z,1012.89
2019-03-19T03:14:12.777Z,1012.88
2019-03-19T03:15:12.772Z,1012.93
2019-03-19T03:16:12.744Z,1012.93
2019-03-19T03:17:12.729Z,1012.95
2019-03-19T03:18:12.725Z,1012.97
2019-03-19T03:19:12.704Z,1012.98
2019-03-19T03:20:12.706Z,1013.05
2019-03-19T03:21:12.693Z,1013.02
2019-03-19T03:22:12.673Z,1013.09
2019-03-19T03:23:12.662Z,1013.07
2019-03-19T03:24:12.663Z,1013.12
2019-03-19T03:25:12.635Z,1013.16
2019-03-19T03:26:12.637Z,1013.15
2019-03-19T03:27:12.631Z,1013.19
2019-03-19T03:28:12.612Z,1013.20
2019-03-19T03:29:12.592Z,1013.22
2019-03-19T03:30:12.584Z,1013.22
2019-03-19T03:31:12.598Z,1013.23
2019-03-19T03:32:12.597Z,1013.22
2019-03-19T03:33:12.572Z,1013.25
2019-03-19T03:34:12.535Z,1013.24
2019-03-19T03:35:12.522Z,1013.24
2019-03-19T03:36:12.512Z,1013.29
2019-03-19T03:37:12.504Z,1013.28
2019-03-19T03:38:12.506Z,1013.30
2019-03-19T03:39:12.513Z,1013.34
2019-03-19T03:40:12.469Z,1013.34
2019-03-19T03:41:12.453Z,1013.34
2019-03-19T03:42:12.444Z,1013.35
2019-03-19T03:43:12.437Z,1013.42
2019-03-19T03:44:12.428Z,1013.39
2019-03-19T03:45:12.409Z,1013.38
2019-03-19T03:46:12.396Z,1013.40
2019-03-19T03:47:12.394Z,1013.42
2019-03-19T03:48:12.389Z,1013.46
2019-03-19T03:49:12.575Z,1013.48
2019-03-19T03:50:12.354Z,1013.48
2019-03-19T03:51:12.343Z,1013.49
2019-03-19T03:52:12.330Z,1013.51
2019-03-19T03:53:12.332Z,1013.53
2019-03-19T03:54:12.318Z,1013.50
2019-03-19T03:55:12.321Z,1013.49
2019-03-19T03:56:12.285Z,1013.51
2019-03-19T03:57:12.274Z,1013.53
2019-03-19T03:58:12.272Z,1013.57
2019-03-19T03:59:12.255Z,1013.54
2019-03-19T04:00:12.252Z,1013.57
2019-03-19T04:01:12.232Z,1013.60
2019-03-19T04:02:12.217Z,1013.59
2019-03-19T04:03:12.207Z,1013.64
2019-03-19T04:04:12.198Z,1013.65
2019-03-19T04:05:12.189Z,1013.68
2019-03-19T04:06:12.187Z,1013.72
2019-03-19T04:07:12.173Z,1013.76
2019-03-19T04:08:12.279Z,1013.77
2019-03-19T04:09:12.197Z,1013.76
2019-03-19T04:10:12.225Z,1013.74
2019-03-19T04:11:12.124Z,1013.75
2019-03-19T04:12:12.103Z,1013.75
2019-03-19T04:13:12.097Z,1013.82
2019-03-19T04:14:12.081Z,1013.84
2019-03-19T04:15:12.077Z,1013.85
2019-03-19T04:16:12.063Z,1013.82
2019-03-19T04:17:12.089Z,1013.87
2019-03-19T04:18:12.070Z,1013.84
2019-03-19T04:19:12.027Z,1013.88
2019-03-19T04:20:12.036Z,1013.87
2019-03-19T04:21:12.008Z,1013.86
2019-03-19T04:22:11.994Z,1013.86
2019-03-19T04:23:12.007Z,1013.89
2019-03-19T04:24:11.993Z,1013.89
2019-03-19T04:25:11.959Z,1013.91
2019-03-19T04:26:11.954Z,1013.93
2019-03-19T04:27:16.241Z,1013.94
2019-03-19T04:28:11.934Z,1013.95
2019-03-19T04:29:11.917Z,1013.95
2019-03-19T04:30:11.906Z,1013.98
2019-03-19T04:31:11.891Z,1013.97
2019-03-19T04:32:11.879Z,1013.96
2019-03-19T04:33:11.876Z,1013.99
2019-03-19T04:34:11.888Z,1013.96
2019-03-19T04:35:11.868Z,1013.97
2019-03-19T04:36:11.860Z,1014.02
2019-03-19T04:37:11.822Z,1014.02
2019-03-19T04:38:11.824Z,1014.09
2019-03-19T04:39:11.814Z,1014.09
2019-03-19T04:40:11.801Z,1014.15
2019-03-19T04:41:11.779Z,1014.13
2019-03-19T04:42:11.768Z,1014.17
2019-03-19T04:43:11.754Z,1014.22
2019-03-19T04:44:11.753Z,1014.23
2019-03-19T04:45:11.741Z,1014.22
2019-03-19T04:46:11.721Z,1014.19
2019-03-19T04:47:11.716Z,1014.17
2019-03-19T04:48:11.698Z,1014.20
2019-03-19T04:49:11.706Z,1014.22
2019-03-19T04:50:11.687Z,1014.25
2019-03-19T04:51:11.701Z,1014.22
2019-03-19T04:52:11.679Z,1014.21
2019-03-19T04:53:11.640Z,1014.25
2019-03-19T04:54:11.631Z,1014.27
2019-03-19T04:55:11.624Z,1014.34
2019-03-19T04:56:11.608Z,1014.37
2019-03-19T04:57:11.601Z,1014.37
2019-03-19T04:58:11.587Z,1014.42
2019-03-19T04:59:11.578Z,1014.43
2019-03-19T05:00:11.579Z,1014.39
2019-03-19T05:01:11.565Z,1014.50
2019-03-19T05:02:11.554Z,1014.46
2019-03-19T05:03:11.530Z,1014.46
2019-03-19T05:04:11.519Z,1014.44
2019-03-19T05:05:11.509Z,1014.43
2019-03-19T05:06:11.500Z,1014.41
2019-03-19T05:07:11.491Z,1014.41
2019-03-19T05:08:11.490Z,1014.42
2019-03-19T05:09:11.470Z,1014.43
2019-03-19T05:10:11.457Z,1014.42
2019-03-19T05:11:11.436Z,1014.43
2019-03-19T05:12:11.468Z,1014.41
2019-03-19T05:13:11.417Z,1014.38
2019-03-19T05:14:11.414Z,1014.41
2019-03-19T05:15:11.406Z,1014.45
2019-03-19T05:16:11.380Z,1014.46
2019-03-19T05:17:11.368Z,1014.46
2019-03-19T05:18:11.357Z,1014.52
2019-03-19T05:19:11.347Z,1014.45
2019-03-19T05:20:11.345Z,1014.46
2019-03-19T05:21:11.324Z,1014.47
2019-03-19T05:22:11.331Z,1014.43
2019-03-19T05:23:11.305Z,1014.47
2019-03-19T05:24:11.292Z,1014.48
2019-03-19T05:25:11.292Z,1014.55
2019-03-19T05:26:11.270Z,1014.55
2019-03-19T05:27:11.279Z,1014.56
2019-03-19T05:28:11.248Z,1014.55
2019-03-19T05:29:11.235Z,1014.56
2019-03-19T05:30:11.242Z,1014.62
2019-03-19T05:31:11.212Z,1014.60
2019-03-19T05:32:11.214Z,1014.62
2019-03-19T05:33:11.197Z,1014.66
2019-03-19T05:34:11.181Z,1014.64
2019-03-19T05:35:11.192Z,1014.64
2019-03-19T05:36:11.157Z,1014.64
2019-03-19T05:37:11.150Z,1014.63
2019-03-19T05:38:11.143Z,1014.69
2019-03-19T05:39:11.132Z,1014.70
2019-03-19T05:40:11.108Z,1014.69
2019-03-19T05:41:11.107Z,1014.73
2019-03-19T05:42:11.085Z,1014.78
2019-03-19T05:43:11.074Z,1014.76
2019-03-19T05:44:11.145Z,1014.76
2019-03-19T05:45:11.062Z,1014.77
2019-03-19T05:46:11.044Z,1014.78
2019-03-19T05:47:11.029Z,1014.73
2019-03-19T05:48:11.019Z,1014.74
2019-03-19T05:49:11.012Z,1014.76
2019-03-19T05:50:11.012Z,1014.79
2019-03-19T05:51:10.990Z,1014.78
2019-03-19T05:52:10.976Z,1014.78
2019-03-19T05:53:10.964Z,1014.80
2019-03-19T05:54:10.961Z,1014.81
2019-03-19T05:55:10.947Z,1014.79
2019-03-19T05:56:10.949Z,1014.79
2019-03-19T05:57:10.920Z,1014.78
2019-03-19T05:58:10.906Z,1014.72
2019-03-19T05:59:10.898Z,1014.78
2019-03-19T06:00:10.894Z,1014.77
2019-03-19T06:01:10.911Z,1014.82
2019-03-19T06:02:10.863Z,1014.86
2019-03-19T06:03:10.854Z,1014.88
2019-03-19T06:04:10.843Z,1014.93
2019-03-19T06:05:10.827Z,1014.94
2019-03-19T06:06:10.837Z,1014.91
2019-03-19T06:07:10.807Z,1014.92
2019-03-19T06:08:10.799Z,1014.92
2019-03-19T06:09:10.785Z,1014.91
2019-03-19T06:10:10.770Z,1014.93
2019-03-19T06:11:10.769Z,1014.90
2019-03-19T06:12:10.750Z,1014.95
2019-03-19T06:13:10.742Z,1014.98
2019-03-19T06:14:10.732Z,1014.94
2019-03-19T06:15:10.724Z,1015.02
2019-03-19T06:16:10.707Z,1015.01
2019-03-19T06:17:10.693Z,1015.01
2019-03-19T06:18:10.683Z,1015.02
2019-03-19T06:19:10.669Z,1014.97
2019-03-19T06:20:10.659Z,1015.02
2019-03-19T06:21:10.655Z,1015.08
2019-03-19T06:22:10.645Z,1015.14
2019-03-19T06:23:10.624Z,1015.11
2019-03-19T06:24:10.618Z,1015.11
2019-03-19T06:25:10.625Z,1015.12
2019-03-19T06:26:10.596Z,1015.14
2019-03-19T06:27:10.584Z,1015.13
2019-03-19T06:28:10.568Z,1015.18
2019-03-19T06:29:10.572Z,1015.16
2019-03-19T06:30:10.559Z,1015.20
2019-03-19T06:31:10.562Z,1015.19
2019-03-19T06:32:10.523Z,1015.20
2019-03-19T06:33:10.514Z,1015.21
2019-03-19T06:34:10.498Z,1015.13
2019-03-19T06:35:10.489Z,1015.19
2019-03-19T06:36:10.500Z,1015.17
2019-03-19T06:37:10.467Z,1015.21
2019-03-19T06:38:10.453Z,1015.21
2019-03-19T06:39:10.445Z,1015.19
2019-03-19T06:40:10.433Z,1015.21
2019-03-19T06:41:10.426Z,1015.18
2019-03-19T06:42:10.411Z,1015.21
2019-03-19T06:43:10.397Z,1015.21
2019-03-19T06:44:10.400Z,1015.23
2019-03-19T06:45:10.377Z,1015.27
2019-03-19T06:46:10.367Z,1015.29
2019-03-19T06:47:10.360Z,1015.31
2019-03-19T06:48:10.346Z,1015.29
2019-03-19T06:49:10.328Z,1015.32
2019-03-19T06:50:10.318Z,1015.33
2019-03-19T06:51:10.318Z,1015.27
2019-03-19T06:52:10.300Z,1015.27
2019-03-19T06:53:10.290Z,1015.30
2019-03-19T06:54:10.284Z,1015.32
2019-03-19T06:55:10.264Z,1015.27
2019-03-19T06:56:10.255Z,1015.33
2019-03-19T06:57:10.249Z,1015.33
2019-03-19T06:58:11.271Z,1015.28
2019-03-19T06:59:10.227Z,1015.23
2019-03-19T07:00:10.205Z,1015.26
2019-03-19T07:01:10.196Z,1015.28
2019-03-19T07:02:10.204Z,1015.32
2019-03-19T07:03:10.172Z,1015.28
2019-03-19T07:04:10.171Z,1015.33
2019-03-19T07:05:10.166Z,1015.33
2019-03-19T07:06:10.138Z,1015.40
2019-03-19T07:07:10.132Z,1015.36
2019-03-19T07:08:10.121Z,1015.35
2019-03-19T07:09:10.107Z,1015.34
2019-03-19T07:10:10.095Z,1015.37
2019-03-19T07:11:10.084Z,1015.36
2019-03-19T07:12:10.088Z,1015.42
2019-03-19T07:13:10.060Z,1015.39
2019-03-19T07:14:10.051Z,1015.42
2019-03-19T07:15:10.039Z,1015.48
2019-03-19T07:16:10.029Z,1015.50
2019-03-19T07:17:10.044Z,1015.51
2019-03-19T07:18:10.006Z,1015.49
2019-03-19T07:19:10.008Z,1015.48
2019-03-19T07:20:09.982Z,1015.48
2019-03-19T07:21:09.972Z,1015.42
2019-03-19T07:22:09.966Z,1015.47
2019-03-19T07:23:09.954Z,1015.50
2019-03-19T07:24:09.947Z,1015.50
2019-03-19T07:25:09.929Z,1015.53
2019-03-19T07:26:09.914Z,1015.58
2019-03-19T07:27:09.903Z,1015.59
2019-03-19T07:28:09.920Z,1015.64
2019-03-19T07:29:09.914Z,1015.65
2019-03-19T07:30:09.881Z,1015.59
2019-03-19T07:31:09.859Z,1015.63
2019-03-19T07:32:09.849Z,1015.62
2019-03-19T07:33:09.838Z,1015.64
2019-03-19T07:34:09.827Z,1015.65
2019-03-19T07:35:09.851Z,1015.61
2019-03-19T07:36:09.818Z,1015.65
2019-03-19T07:37:10.808Z,1015.64
2019-03-19T07:38:09.789Z,1015.62
2019-03-19T07:39:09.770Z,1015.68
2019-03-19T07:40:09.765Z,1015.70
2019-03-19T07:41:09.819Z,1015.68
2019-03-19T07:42:09.752Z,1015.74
2019-03-19T07:43:09.756Z,1015.68
2019-03-19T07:44:09.714Z,1015.71
2019-03-19T07:45:09.713Z,1015.72
2019-03-19T07:46:09.733Z,1015.64
2019-03-19T07:47:09.683Z,1015.66
2019-03-19T07:48:09.673Z,1015.68
2019-03-19T07:49:09.661Z,1015.70
2019-03-19T07:50:09.650Z,1015.68
2019-03-19T07:51:09.654Z,1015.72
2019-03-19T07:52:09.624Z,1015.71
2019-03-19T07:53:09.643Z,1015.74
2019-03-19T07:54:09.603Z,1015.78
2019-03-19T07:55:09.591Z,1015.73
2019-03-19T07:56:09.577Z,1015.76
2019-03-19T07:57:09.582Z,1015.75
2019-03-19T07:58:09.587Z,1015.84
2019-03-19T07:59:09.543Z,1015.85
2019-03-19T08:00:09.535Z,1015.80
2019-03-19T08:01:09.546Z,1015.85
2019-03-19T08:02:09.513Z,1015.96
2019-03-19T08:03:15.990Z,1015.93
2019-03-19T08:04:10.486Z,1015.89
2019-03-19T08:05:09.475Z,1015.88
2019-03-19T08:06:09.467Z,1015.96
2019-03-19T08:07:09.487Z,1015.87
2019-03-19T08:08:09.471Z,1015.91
2019-03-19T08:09:09.451Z,1015.92
2019-03-19T08:10:09.428Z,1015.90
2019-03-19T08:11:09.408Z,1015.87
2019-03-19T08:12:09.397Z,1015.96
2019-03-19T08:13:09.411Z,1016.00
2019-03-19T08:14:09.380Z,1015.99
2019-03-19T08:15:09.379Z,1015.97
2019-03-19T08:16:09.354Z,1016.00
2019-03-19T08:17:09.340Z,1015.98
2019-03-19T08:18:09.336Z,1015.98
2019-03-19T08:19:09.322Z,1016.03
2019-03-19T08:20:09.312Z,1016.01
2019-03-19T08:21:09.301Z,1016.04
2019-03-19T08:22:09.284Z,1016.01
2019-03-19T08:23:09.277Z,1016.05
2019-03-19T08:24:09.272Z,1016.11
2019-03-19T08:25:09.250Z,1016.12
2019-03-19T08:26:09.292Z,1016.14
2019-03-19T08:27:09.277Z,1016.19
2019-03-19T08:28:09.221Z,1016.18
2019-03-19T08:29:09.206Z,1016.16
2019-03-19T08:30:09.196Z,1016.18
2019-03-19T08:31:09.184Z,1016.13
2019-03-19T08:32:09.177Z,1016.13
2019-03-19T08:33:09.171Z,1016.09
2019-03-19T08:34:09.157Z,1016.11
2019-03-19T08:35:09.158Z,1016.13
2019-03-19T08:36:09.770Z,1016.07
2019-03-19T08:37:09.123Z,1016.09
2019-03-19T08:38:09.128Z,1016.11
2019-03-19T08:39:09.103Z,1016.11
2019-03-19T08:40:09.080Z,1016.09
2019-03-19T08:41:09.070Z,1015.98
2019-03-19T08:42:09.060Z,1016.01
2019-03-19T08:43:09.052Z,1016.05
2019-03-19T08:44:09.057Z,1016.08
2019-03-19T08:45:09.048Z,1016.10
2019-03-19T08:46:09.051Z,1016.06
2019-03-19T08:47:09.002Z,1016.02
2019-03-19T08:48:08.997Z,1016.06
2019-03-19T08:49:08.979Z,1016.04
2019-03-19T08:50:08.970Z,1016.09
2019-03-19T08:51:08.964Z,1016.12
2019-03-19T08:52:08.949Z,1016.20
2019-03-19T08:53:08.940Z,1016.26
2019-03-19T08:54:08.936Z,1016.23
2019-03-19T08:55:08.923Z,1016.24
2019-03-19T08:56:08.905Z,1016.28
2019-03-19T08:57:08.898Z,1016.29
2019-03-19T08:58:08.879Z,1016.29
2019-03-19T08:59:08.863Z,1016.31
2019-03-19T09:00:08.863Z,1016.31
2019-03-19T09:01:08.844Z,1016.32
2019-03-19T09:02:08.838Z,1016.36
2019-03-19T09:03:08.820Z,1016.34
2019-03-19T09:04:08.813Z,1016.32
2019-03-19T09:05:08.826Z,1016.35
2019-03-19T09:06:08.809Z,1016.36
2019-03-19T09:07:08.775Z,1016.35
2019-03-19T09:08:08.775Z,1016.34
2019-03-19T09:09:08.757Z,1016.37
2019-03-19T09:10:08.748Z,1016.39
2019-03-19T09:11:08.731Z,1016.43
2019-03-19T09:12:08.720Z,1016.42
2019-03-19T09:13:08.711Z,1016.48
2019-03-19T09:14:08.697Z,1016.50
2019-03-19T09:15:08.690Z,1016.44
2019-03-19T09:16:08.683Z,1016.40
2019-03-19T09:17:08.674Z,1016.39
2019-03-19T09:18:08.660Z,1016.40
2019-03-19T09:19:08.652Z,1016.38
2019-03-19T09:20:08.689Z,1016.41
2019-03-19T09:21:08.620Z,1016.39
2019-03-19T09:22:08.612Z,1016.43
2019-03-19T09:23:08.601Z,1016.45
2019-03-19T09:24:08.604Z,1016.46
2019-03-19T09:25:08.581Z,1016.49
2019-03-19T09:26:08.573Z,1016.53
2019-03-19T09:27:08.559Z,1016.55
2019-03-19T09:28:08.549Z,1016.57
2019-03-19T09:29:16.391Z,1016.61
2019-03-19T09:30:09.527Z,1016.56
2019-03-19T09:31:08.515Z,1016.52
2019-03-19T09:32:08.502Z,1016.55
2019-03-19T09:33:08.490Z,1016.57
2019-03-19T09:34:08.478Z,1016.55
2019-03-19T09:35:08.468Z,1016.53
2019-03-19T09:36:08.466Z,1016.61
2019-03-19T09:37:08.447Z,1016.60
2019-03-19T09:38:08.434Z,1016.66
2019-03-19T09:39:08.424Z,1016.68
2019-03-19T09:40:08.414Z,1016.68
2019-03-19T09:41:08.408Z,1016.72
2019-03-19T09:42:08.387Z,1016.68
2019-03-19T09:43:08.387Z,1016.66
2019-03-19T09:44:08.373Z,1016.65
2019-03-19T09:45:08.357Z,1016.68
2019-03-19T09:46:08.347Z,1016.66
2019-03-19T09:47:08.332Z,1016.66
2019-03-19T09:48:08.318Z,1016.65
2019-03-19T09:49:08.305Z,1016.64
2019-03-19T09:50:08.295Z,1016.64
2019-03-19T09:51:08.284Z,1016.63
2019-03-19T09:52:08.285Z,1016.67
2019-03-19T09:53:08.262Z,1016.69
2019-03-19T09:54:08.251Z,1016.71
2019-03-19T09:55:08.238Z,1016.72
2019-03-19T09:56:08.236Z,1016.73
2019-03-19T09:57:08.220Z,1016.71
2019-03-19T09:58:08.204Z,1016.72
2019-03-19T09:59:08.214Z,1016.66
2019-03-19T10:00:08.185Z,1016.65
2019-03-19T10:01:08.173Z,1016.60
2019-03-19T10:02:08.170Z,1016.63
2019-03-19T10:03:08.154Z,1016.63
2019-03-19T10:04:08.139Z,1016.63
2019-03-19T10:05:08.126Z,1016.68
2019-03-19T10:06:13.874Z,1016.71
2019-03-19T10:07:09.111Z,1016.68
2019-03-19T10:08:08.095Z,1016.70
2019-03-19T10:09:08.096Z,1016.66
2019-03-19T10:10:08.074Z,1016.66
2019-03-19T10:11:08.105Z,1016.66
2019-03-19T10:12:08.080Z,1016.70
2019-03-19T10:13:08.103Z,1016.72
2019-03-19T10:14:08.030Z,1016.73
2019-03-19T10:15:08.013Z,1016.56
2019-03-19T10:16:08.023Z,1016.57
2019-03-19T10:17:07.991Z,1016.55
2019-03-19T10:18:07.978Z,1016.56
2019-03-19T10:19:07.971Z,1016.59
2019-03-19T10:20:07.958Z,1016.54
2019-03-19T10:21:07.945Z,1016.50
2019-03-19T10:22:07.942Z,1016.52
2019-03-19T10:23:07.920Z,1016.62
2019-03-19T10:24:07.909Z,1016.56
2019-03-19T10:25:07.910Z,1016.54
2019-03-19T10:26:07.905Z,1016.56
2019-03-19T10:27:07.877Z,1016.56
2019-03-19T10:28:07.875Z,1016.57
2019-03-19T10:29:07.891Z,1016.60
2019-03-19T10:30:07.850Z,1016.60
2019-03-19T10:31:07.834Z,1016.62
2019-03-19T10:32:07.893Z,1016.62
2019-03-19T10:33:07.815Z,1016.76
2019-03-19T10:34:07.799Z,1016.75
2019-03-19T10:35:07.787Z,1016.60
2019-03-19T10:36:07.783Z,1016.59
2019-03-19T10:37:07.782Z,1016.69
2019-03-19T10:38:07.754Z,1016.66
2019-03-19T10:39:09.063Z,1016.60
2019-03-19T10:40:07.737Z,1016.54
2019-03-19T10:41:07.724Z,1016.56
2019-03-19T10:42:07.714Z,1016.56
2019-03-19T10:43:07.700Z,1016.61
2019-03-19T10:44:07.698Z,1016.68
2019-03-19T10:45:07.675Z,1016.71
2019-03-19T10:46:07.668Z,1016.77
2019-03-19T10:47:07.665Z,1016.76
2019-03-19T10:48:07.641Z,1016.68
2019-03-19T10:49:07.641Z,1016.69
2019-03-19T10:50:07.624Z,1016.62
2019-03-19T10:51:07.613Z,1016.62
2019-03-19T10:52:07.601Z,1016.59
2019-03-19T10:53:07.585Z,1016.59
2019-03-19T10:54:07.574Z,1016.64
2019-03-19T10:55:07.562Z,1016.56
2019-03-19T10:56:07.558Z,1016.57
2019-03-19T10:57:07.544Z,1016.55
2019-03-19T10:58:11.293Z,1016.56
2019-03-19T10:59:07.518Z,1016.61
2019-03-19T11:00:07.513Z,1016.57
2019-03-19T11:01:07.495Z,1016.63
2019-03-19T11:02:07.485Z,1016.61
2019-03-19T11:03:07.488Z,1016.58
2019-03-19T11:04:07.460Z,1016.49
2019-03-19T11:05:07.455Z,1016.58
2019-03-19T11:06:07.447Z,1016.59
2019-03-19T11:07:07.445Z,1016.58
2019-03-19T11:08:07.415Z,1016.61
2019-03-19T11:09:07.403Z,1016.58
2019-03-19T11:10:07.404Z,1016.59
2019-03-19T11:11:07.386Z,1016.65
2019-03-19T11:12:07.377Z,1016.72
2019-03-19T11:13:07.361Z,1016.77
2019-03-19T11:14:07.347Z,1016.77
2019-03-19T11:15:07.343Z,1016.70
2019-03-19T11:16:07.332Z,1016.77
2019-03-19T11:17:07.317Z,1016.80
2019-03-19T11:18:07.309Z,1016.76
2019-03-19T11:19:07.295Z,1016.75
2019-03-19T11:20:07.291Z,1016.66
2019-03-19T11:21:07.271Z,1016.70
2019-03-19T11:22:07.258Z,1016.69
2019-03-19T11:23:07.249Z,1016.67
2019-03-19T11:24:07.236Z,1016.70
2019-03-19T11:25:07.227Z,1016.68
2019-03-19T11:26:07.213Z,1016.73
2019-03-19T11:27:07.203Z,1016.77
2019-03-19T11:28:07.211Z,1016.88
2019-03-19T11:29:07.179Z,1016.78
2019-03-19T11:30:07.168Z,1016.77
2019-03-19T11:31:07.159Z,1016.82
2019-03-19T11:32:07.180Z,1016.78
2019-03-19T11:33:07.137Z,1016.79
2019-03-19T11:34:07.122Z,1016.73
2019-03-19T11:35:07.114Z,1016.71
2019-03-19T11:36:07.102Z,1016.68
2019-03-19T11:37:07.089Z,1016.64
2019-03-19T11:38:07.092Z,1016.64
2019-03-19T11:39:07.071Z,1016.67
2019-03-19T11:40:07.057Z,1016.64
2019-03-19T11:41:07.461Z,1016.75
2019-03-19T11:42:07.032Z,1016.76
2019-03-19T11:43:07.037Z,1016.72
2019-03-19T11:44:07.014Z,1016.72
2019-03-19T11:45:07.010Z,1016.75
2019-03-19T11:46:06.987Z,1016.76
2019-03-19T11:47:06.975Z,1016.77
2019-03-19T11:48:07.004Z,1016.77
2019-03-19T11:49:06.957Z,1016.76
2019-03-19T11:50:06.944Z,1016.73
2019-03-19T11:51:06.937Z,1016.71
2019-03-19T11:52:06.920Z,1016.74
2019-03-19T11:53:06.907Z,1016.65
2019-03-19T11:54:06.901Z,1016.53
2019-03-19T11:55:06.886Z,1016.68
2019-03-19T11:56:06.875Z,1016.74
2019-03-19T11:57:06.862Z,1016.77
2019-03-19T11:58:06.856Z,1016.77
2019-03-19T11:59:06.858Z,1016.74
2019-03-19T12:00:11.244Z,1016.71
2019-03-19T12:01:06.829Z,1016.71
2019-03-19T12:02:06.812Z,1016.65
2019-03-19T12:03:13.769Z,1016.69
2019-03-19T12:04:07.784Z,1016.71
2019-03-19T12:05:06.770Z,1016.66